sensor_id;sensor_type;location;lat;lon;timestamp;temperature;humidity
19050;DHT22;9657;45.940;12.840;2023-05-10T00:02:09;21.20;66.30
19050;DHT22;9657;45.940;12.840;2023-05-10T00:04:37;21.20;66.40
19050;DHT22;9657;45.940;12.840;2023-05-10T00:07:04;21.20;66.30
19050;DHT22;9657;45.940;12.840;2023-05-10T00:09:32;21.20;66.30
19050;DHT22;9657;45.940;12.840;2023-05-10T00:11:59;21.20;66.30
19050;DHT22;9657;45.940;12.840;2023-05-10T00:14:26;21.20;66.30
19050;DHT22;9657;45.940;12.840;2023-05-10T00:16:53;21.20;66.20
19050;DHT22;9657;45.940;12.840;2023-05-10T00:19:20;21.20;66.20
19050;DHT22;9657;45.940;12.840;2023-05-10T00:21:48;21.20;66.20
19050;DHT22;9657;45.940;12.840;2023-05-10T00:24:15;21.20;66.20
19050;DHT22;9657;45.940;12.840;2023-05-10T00:26:42;21.20;66.20
19050;DHT22;9657;45.940;12.840;2023-05-10T00:29:10;21.20;66.20
19050;DHT22;9657;45.940;12.840;2023-05-10T00:31:37;21.20;66.20
19050;DHT22;9657;45.940;12.840;2023-05-10T00:34:04;21.10;66.10
19050;DHT22;9657;45.940;12.840;2023-05-10T00:36:31;21.20;66.10
19050;DHT22;9657;45.940;12.840;2023-05-10T00:38:59;21.20;66.10
19050;DHT22;9657;45.940;12.840;2023-05-10T00:41:26;21.20;66.10
19050;DHT22;9657;45.940;12.840;2023-05-10T00:43:53;21.20;66.00
19050;DHT22;9657;45.940;12.840;2023-05-10T00:46:20;21.20;66.00
19050;DHT22;9657;45.940;12.840;2023-05-10T00:48:48;21.10;66.00
19050;DHT22;9657;45.940;12.840;2023-05-10T00:51:15;21.20;66.00
19050;DHT22;9657;45.940;12.840;2023-05-10T00:53:44;21.20;66.00
19050;DHT22;9657;45.940;12.840;2023-05-10T00:56:13;21.10;66.00
19050;DHT22;9657;45.940;12.840;2023-05-10T00:58:40;21.10;66.00
19050;DHT22;9657;45.940;12.840;2023-05-10T01:03:43;21.10;66.00
19050;DHT22;9657;45.940;12.840;2023-05-10T01:06:11;21.10;66.00
19050;DHT22;9657;45.940;12.840;2023-05-10T01:08:38;21.10;65.90
19050;DHT22;9657;45.940;12.840;2023-05-10T01:11:05;21.10;65.90
19050;DHT22;9657;45.940;12.840;2023-05-10T01:13:36;21.10;65.90
19050;DHT22;9657;45.940;12.840;2023-05-10T01:16:05;21.10;65.80
19050;DHT22;9657;45.940;12.840;2023-05-10T01:18:36;21.10;65.80
19050;DHT22;9657;45.940;12.840;2023-05-10T01:21:17;21.10;65.80
19050;DHT22;9657;45.940;12.840;2023-05-10T01:27:31;21.10;65.80
19050;DHT22;9657;45.940;12.840;2023-05-10T01:30:39;21.10;65.70
19050;DHT22;9657;45.940;12.840;2023-05-10T01:33:11;21.10;65.70
19050;DHT22;9657;45.940;12.840;2023-05-10T01:35:43;21.10;65.70
19050;DHT22;9657;45.940;12.840;2023-05-10T01:38:28;21.10;65.60
19050;DHT22;9657;45.940;12.840;2023-05-10T01:41:06;21.10;65.60
19050;DHT22;9657;45.940;12.840;2023-05-10T01:43:51;21.10;65.60
19050;DHT22;9657;45.940;12.840;2023-05-10T01:46:24;21.10;65.60
19050;DHT22;9657;45.940;12.840;2023-05-10T01:48:56;21.10;65.60
19050;DHT22;9657;45.940;12.840;2023-05-10T01:51:26;21.10;65.60
19050;DHT22;9657;45.940;12.840;2023-05-10T01:53:59;21.10;65.60
19050;DHT22;9657;45.940;12.840;2023-05-10T01:56:30;21.10;65.60
19050;DHT22;9657;45.940;12.840;2023-05-10T01:59:00;21.10;65.50
19050;DHT22;9657;45.940;12.840;2023-05-10T02:01:33;21.00;65.50
19050;DHT22;9657;45.940;12.840;2023-05-10T02:04:03;21.10;65.50
19050;DHT22;9657;45.940;12.840;2023-05-10T02:06:32;21.10;65.50
19050;DHT22;9657;45.940;12.840;2023-05-10T02:09:00;21.00;65.40
19050;DHT22;9657;45.940;12.840;2023-05-10T02:11:28;21.00;65.40
19050;DHT22;9657;45.940;12.840;2023-05-10T02:13:58;21.00;65.30
19050;DHT22;9657;45.940;12.840;2023-05-10T02:16:27;21.00;65.30
19050;DHT22;9657;45.940;12.840;2023-05-10T02:18:57;21.10;65.30
19050;DHT22;9657;45.940;12.840;2023-05-10T02:21:27;21.10;65.30
19050;DHT22;9657;45.940;12.840;2023-05-10T02:23:55;21.10;65.30
19050;DHT22;9657;45.940;12.840;2023-05-10T02:26:24;21.00;65.20
19050;DHT22;9657;45.940;12.840;2023-05-10T02:28:53;21.10;65.20
19050;DHT22;9657;45.940;12.840;2023-05-10T02:31:21;21.00;65.20
19050;DHT22;9657;45.940;12.840;2023-05-10T02:33:49;21.00;65.20
19050;DHT22;9657;45.940;12.840;2023-05-10T02:36:17;21.00;65.20
19050;DHT22;9657;45.940;12.840;2023-05-10T02:38:47;21.00;65.10
19050;DHT22;9657;45.940;12.840;2023-05-10T02:41:16;21.00;65.10
19050;DHT22;9657;45.940;12.840;2023-05-10T02:43:45;21.00;65.10
19050;DHT22;9657;45.940;12.840;2023-05-10T02:46:13;21.00;65.10
19050;DHT22;9657;45.940;12.840;2023-05-10T02:48:40;21.00;65.10
19050;DHT22;9657;45.940;12.840;2023-05-10T02:51:08;21.00;65.10
19050;DHT22;9657;45.940;12.840;2023-05-10T02:53:38;21.00;65.10
19050;DHT22;9657;45.940;12.840;2023-05-10T02:56:13;21.00;65.10
19050;DHT22;9657;45.940;12.840;2023-05-10T02:58:41;21.00;65.10
19050;DHT22;9657;45.940;12.840;2023-05-10T03:01:08;21.00;65.00
19050;DHT22;9657;45.940;12.840;2023-05-10T03:03:35;21.00;65.80
19050;DHT22;9657;45.940;12.840;2023-05-10T03:06:02;21.00;65.00
19050;DHT22;9657;45.940;12.840;2023-05-10T03:08:30;21.00;65.00
19050;DHT22;9657;45.940;12.840;2023-05-10T03:11:16;21.00;65.00
19050;DHT22;9657;45.940;12.840;2023-05-10T03:13:56;21.00;65.00
19050;DHT22;9657;45.940;12.840;2023-05-10T03:16:34;21.00;65.00
19050;DHT22;9657;45.940;12.840;2023-05-10T03:19:09;21.00;65.00
19050;DHT22;9657;45.940;12.840;2023-05-10T03:21:41;21.00;64.90
19050;DHT22;9657;45.940;12.840;2023-05-10T03:24:12;21.00;65.00
19050;DHT22;9657;45.940;12.840;2023-05-10T03:26:43;21.00;64.90
19050;DHT22;9657;45.940;12.840;2023-05-10T03:29:11;21.00;64.90
19050;DHT22;9657;45.940;12.840;2023-05-10T03:31:39;21.00;64.90
19050;DHT22;9657;45.940;12.840;2023-05-10T03:34:06;21.00;64.90
19050;DHT22;9657;45.940;12.840;2023-05-10T03:36:34;20.90;64.80
19050;DHT22;9657;45.940;12.840;2023-05-10T03:39:01;21.00;64.80
19050;DHT22;9657;45.940;12.840;2023-05-10T03:41:29;21.00;64.80
19050;DHT22;9657;45.940;12.840;2023-05-10T03:43:57;20.90;64.80
19050;DHT22;9657;45.940;12.840;2023-05-10T03:46:24;21.00;64.80
19050;DHT22;9657;45.940;12.840;2023-05-10T03:48:51;21.00;64.80
19050;DHT22;9657;45.940;12.840;2023-05-10T03:51:18;20.90;64.80
19050;DHT22;9657;45.940;12.840;2023-05-10T03:53:46;21.00;64.80
19050;DHT22;9657;45.940;12.840;2023-05-10T03:56:13;20.90;64.80
19050;DHT22;9657;45.940;12.840;2023-05-10T03:58:40;21.00;64.80
19050;DHT22;9657;45.940;12.840;2023-05-10T04:01:08;20.90;64.80
19050;DHT22;9657;45.940;12.840;2023-05-10T04:03:36;20.90;64.70
19050;DHT22;9657;45.940;12.840;2023-05-10T04:06:04;20.90;64.80
19050;DHT22;9657;45.940;12.840;2023-05-10T04:08:32;20.90;64.80
19050;DHT22;9657;45.940;12.840;2023-05-10T04:11:05;20.90;64.70
19050;DHT22;9657;45.940;12.840;2023-05-10T04:13:33;20.90;64.70
19050;DHT22;9657;45.940;12.840;2023-05-10T04:16:00;20.90;64.70
19050;DHT22;9657;45.940;12.840;2023-05-10T04:18:28;20.90;64.70
19050;DHT22;9657;45.940;12.840;2023-05-10T04:20:56;20.90;64.70
19050;DHT22;9657;45.940;12.840;2023-05-10T04:23:23;20.90;65.40
19050;DHT22;9657;45.940;12.840;2023-05-10T04:25:50;20.90;64.80
19050;DHT22;9657;45.940;12.840;2023-05-10T04:28:17;20.90;64.80
19050;DHT22;9657;45.940;12.840;2023-05-10T04:30:44;20.90;64.70
19050;DHT22;9657;45.940;12.840;2023-05-10T04:33:11;20.90;64.70
19050;DHT22;9657;45.940;12.840;2023-05-10T04:35:39;20.90;64.80
19050;DHT22;9657;45.940;12.840;2023-05-10T04:38:06;20.90;64.80
19050;DHT22;9657;45.940;12.840;2023-05-10T04:40:33;20.90;64.70
19050;DHT22;9657;45.940;12.840;2023-05-10T04:43:01;20.90;64.80
19050;DHT22;9657;45.940;12.840;2023-05-10T04:45:28;20.90;64.80
19050;DHT22;9657;45.940;12.840;2023-05-10T04:47:55;20.90;64.90
19050;DHT22;9657;45.940;12.840;2023-05-10T04:50:22;20.90;64.90
19050;DHT22;9657;45.940;12.840;2023-05-10T04:52:50;20.90;64.90
19050;DHT22;9657;45.940;12.840;2023-05-10T04:55:17;20.90;65.00
19050;DHT22;9657;45.940;12.840;2023-05-10T04:57:44;20.90;65.10
19050;DHT22;9657;45.940;12.840;2023-05-10T05:00:12;20.90;65.20
19050;DHT22;9657;45.940;12.840;2023-05-10T05:02:42;20.90;65.20
19050;DHT22;9657;45.940;12.840;2023-05-10T05:05:10;20.90;65.20
19050;DHT22;9657;45.940;12.840;2023-05-10T05:07:37;20.90;65.20
19050;DHT22;9657;45.940;12.840;2023-05-10T05:10:06;20.90;65.20
19050;DHT22;9657;45.940;12.840;2023-05-10T05:12:34;20.90;65.20
19050;DHT22;9657;45.940;12.840;2023-05-10T05:15:01;20.90;65.30
19050;DHT22;9657;45.940;12.840;2023-05-10T05:17:30;20.90;65.30
19050;DHT22;9657;45.940;12.840;2023-05-10T05:19:57;20.90;65.20
19050;DHT22;9657;45.940;12.840;2023-05-10T05:22:24;20.90;65.20
19050;DHT22;9657;45.940;12.840;2023-05-10T05:24:53;20.90;65.30
19050;DHT22;9657;45.940;12.840;2023-05-10T05:27:22;20.90;65.30
19050;DHT22;9657;45.940;12.840;2023-05-10T05:29:50;20.90;65.30
19050;DHT22;9657;45.940;12.840;2023-05-10T05:32:17;20.90;65.30
19050;DHT22;9657;45.940;12.840;2023-05-10T05:34:44;20.90;65.30
19050;DHT22;9657;45.940;12.840;2023-05-10T05:37:13;20.90;65.30
19050;DHT22;9657;45.940;12.840;2023-05-10T05:39:40;20.90;65.30
19050;DHT22;9657;45.940;12.840;2023-05-10T05:42:08;20.90;65.30
19050;DHT22;9657;45.940;12.840;2023-05-10T05:44:37;20.80;65.30
19050;DHT22;9657;45.940;12.840;2023-05-10T05:47:04;20.90;65.40
19050;DHT22;9657;45.940;12.840;2023-05-10T05:49:31;20.90;65.50
19050;DHT22;9657;45.940;12.840;2023-05-10T05:51:59;20.90;65.40
19050;DHT22;9657;45.940;12.840;2023-05-10T05:54:27;20.90;65.50
19050;DHT22;9657;45.940;12.840;2023-05-10T05:56:54;20.90;65.50
19050;DHT22;9657;45.940;12.840;2023-05-10T05:59:22;20.90;65.50
19050;DHT22;9657;45.940;12.840;2023-05-10T06:01:50;20.90;65.50
19050;DHT22;9657;45.940;12.840;2023-05-10T06:04:18;20.90;65.50
19050;DHT22;9657;45.940;12.840;2023-05-10T06:06:45;20.90;65.50
19050;DHT22;9657;45.940;12.840;2023-05-10T06:09:12;20.90;65.50
19050;DHT22;9657;45.940;12.840;2023-05-10T06:11:40;20.80;65.40
19050;DHT22;9657;45.940;12.840;2023-05-10T06:14:07;20.90;65.50
19050;DHT22;9657;45.940;12.840;2023-05-10T06:16:34;20.90;65.50
19050;DHT22;9657;45.940;12.840;2023-05-10T06:19:03;20.80;65.50
19050;DHT22;9657;45.940;12.840;2023-05-10T06:21:30;20.90;65.50
19050;DHT22;9657;45.940;12.840;2023-05-10T06:23:57;20.80;65.40
19050;DHT22;9657;45.940;12.840;2023-05-10T06:26:24;20.80;65.40
19050;DHT22;9657;45.940;12.840;2023-05-10T06:28:51;20.90;65.50
19050;DHT22;9657;45.940;12.840;2023-05-10T06:31:18;20.90;65.50
19050;DHT22;9657;45.940;12.840;2023-05-10T06:33:45;20.80;65.40
19050;DHT22;9657;45.940;12.840;2023-05-10T06:36:13;20.90;65.60
19050;DHT22;9657;45.940;12.840;2023-05-10T06:38:40;20.90;65.60
19050;DHT22;9657;45.940;12.840;2023-05-10T06:41:08;20.80;65.50
19050;DHT22;9657;45.940;12.840;2023-05-10T06:43:35;20.90;65.60
19050;DHT22;9657;45.940;12.840;2023-05-10T06:46:05;20.80;65.50
19050;DHT22;9657;45.940;12.840;2023-05-10T06:48:33;20.90;65.60
19050;DHT22;9657;45.940;12.840;2023-05-10T06:51:00;20.80;65.40
19050;DHT22;9657;45.940;12.840;2023-05-10T06:53:28;20.80;66.30
19050;DHT22;9657;45.940;12.840;2023-05-10T06:55:55;20.80;65.50
19050;DHT22;9657;45.940;12.840;2023-05-10T06:58:23;20.90;65.60
19050;DHT22;9657;45.940;12.840;2023-05-10T07:00:50;20.90;65.60
19050;DHT22;9657;45.940;12.840;2023-05-10T07:03:17;20.90;65.60
19050;DHT22;9657;45.940;12.840;2023-05-10T07:05:44;20.90;65.60
19050;DHT22;9657;45.940;12.840;2023-05-10T07:08:11;20.90;66.40
19050;DHT22;9657;45.940;12.840;2023-05-10T07:10:40;20.90;65.60
19050;DHT22;9657;45.940;12.840;2023-05-10T07:13:07;20.90;65.70
19050;DHT22;9657;45.940;12.840;2023-05-10T07:15:35;20.90;65.60
19050;DHT22;9657;45.940;12.840;2023-05-10T07:18:02;20.80;65.50
19050;DHT22;9657;45.940;12.840;2023-05-10T07:20:31;20.90;65.60
19050;DHT22;9657;45.940;12.840;2023-05-10T07:22:58;20.80;65.40
19050;DHT22;9657;45.940;12.840;2023-05-10T07:25:25;20.90;65.50
19050;DHT22;9657;45.940;12.840;2023-05-10T07:27:53;20.90;65.50
19050;DHT22;9657;45.940;12.840;2023-05-10T07:30:20;20.90;65.50
19050;DHT22;9657;45.940;12.840;2023-05-10T07:32:47;20.80;65.40
19050;DHT22;9657;45.940;12.840;2023-05-10T07:35:14;20.80;65.30
19050;DHT22;9657;45.940;12.840;2023-05-10T07:37:42;20.80;65.30
19050;DHT22;9657;45.940;12.840;2023-05-10T07:40:09;20.90;65.30
19050;DHT22;9657;45.940;12.840;2023-05-10T07:42:36;20.80;66.10
19050;DHT22;9657;45.940;12.840;2023-05-10T07:45:06;20.80;65.30
19050;DHT22;9657;45.940;12.840;2023-05-10T07:47:33;20.80;65.30
19050;DHT22;9657;45.940;12.840;2023-05-10T07:50:00;20.80;65.20
19050;DHT22;9657;45.940;12.840;2023-05-10T07:52:27;20.80;65.30
19050;DHT22;9657;45.940;12.840;2023-05-10T07:54:54;20.80;65.30
19050;DHT22;9657;45.940;12.840;2023-05-10T07:57:22;20.80;65.20
19050;DHT22;9657;45.940;12.840;2023-05-10T07:59:49;20.80;65.20
19050;DHT22;9657;45.940;12.840;2023-05-10T08:02:18;20.80;65.20
19050;DHT22;9657;45.940;12.840;2023-05-10T08:04:45;20.80;65.20
19050;DHT22;9657;45.940;12.840;2023-05-10T08:07:12;20.80;66.00
19050;DHT22;9657;45.940;12.840;2023-05-10T08:09:39;20.80;65.30
19050;DHT22;9657;45.940;12.840;2023-05-10T08:12:06;20.80;65.20
19050;DHT22;9657;45.940;12.840;2023-05-10T08:14:33;20.80;65.20
19050;DHT22;9657;45.940;12.840;2023-05-10T08:17:02;20.80;65.20
19050;DHT22;9657;45.940;12.840;2023-05-10T08:19:30;20.80;65.30
19050;DHT22;9657;45.940;12.840;2023-05-10T08:21:57;20.80;65.30
19050;DHT22;9657;45.940;12.840;2023-05-10T08:24:25;20.80;66.00
19050;DHT22;9657;45.940;12.840;2023-05-10T08:26:52;20.80;65.20
19050;DHT22;9657;45.940;12.840;2023-05-10T08:29:19;20.80;65.20
19050;DHT22;9657;45.940;12.840;2023-05-10T08:31:46;20.80;65.20
19050;DHT22;9657;45.940;12.840;2023-05-10T08:34:13;20.80;65.30
19050;DHT22;9657;45.940;12.840;2023-05-10T08:36:42;20.80;65.30
19050;DHT22;9657;45.940;12.840;2023-05-10T08:39:08;20.80;65.30
19050;DHT22;9657;45.940;12.840;2023-05-10T08:41:37;20.80;65.20
19050;DHT22;9657;45.940;12.840;2023-05-10T08:44:08;20.80;65.30
19050;DHT22;9657;45.940;12.840;2023-05-10T08:46:37;20.80;65.30
19050;DHT22;9657;45.940;12.840;2023-05-10T08:49:06;20.80;65.30
19050;DHT22;9657;45.940;12.840;2023-05-10T08:51:36;20.80;65.30
19050;DHT22;9657;45.940;12.840;2023-05-10T08:54:08;20.80;65.30
19050;DHT22;9657;45.940;12.840;2023-05-10T08:56:36;20.80;65.30
19050;DHT22;9657;45.940;12.840;2023-05-10T08:59:03;20.80;65.30
19050;DHT22;9657;45.940;12.840;2023-05-10T09:01:30;20.80;65.30
19050;DHT22;9657;45.940;12.840;2023-05-10T09:03:58;20.80;65.30
19050;DHT22;9657;45.940;12.840;2023-05-10T09:06:25;20.80;65.30
19050;DHT22;9657;45.940;12.840;2023-05-10T09:08:53;20.80;65.30
19050;DHT22;9657;45.940;12.840;2023-05-10T09:11:21;20.80;65.30
19050;DHT22;9657;45.940;12.840;2023-05-10T09:13:50;20.80;65.30
19050;DHT22;9657;45.940;12.840;2023-05-10T09:16:17;20.80;65.30
19050;DHT22;9657;45.940;12.840;2023-05-10T09:18:44;20.80;65.30
19050;DHT22;9657;45.940;12.840;2023-05-10T09:21:12;20.80;65.30
19050;DHT22;9657;45.940;12.840;2023-05-10T09:23:42;20.80;65.30
19050;DHT22;9657;45.940;12.840;2023-05-10T09:26:09;20.80;65.30
19050;DHT22;9657;45.940;12.840;2023-05-10T09:28:51;20.80;65.30
19050;DHT22;9657;45.940;12.840;2023-05-10T09:31:19;20.80;65.30
19050;DHT22;9657;45.940;12.840;2023-05-10T09:33:46;20.80;65.30
19050;DHT22;9657;45.940;12.840;2023-05-10T09:36:14;20.80;65.30
19050;DHT22;9657;45.940;12.840;2023-05-10T09:38:51;20.80;65.30
19050;DHT22;9657;45.940;12.840;2023-05-10T09:41:19;20.80;65.30
19050;DHT22;9657;45.940;12.840;2023-05-10T09:43:48;20.80;65.30
19050;DHT22;9657;45.940;12.840;2023-05-10T09:46:15;20.80;65.30
19050;DHT22;9657;45.940;12.840;2023-05-10T09:48:45;20.80;65.30
19050;DHT22;9657;45.940;12.840;2023-05-10T09:51:19;20.80;65.30
19050;DHT22;9657;45.940;12.840;2023-05-10T09:53:47;20.80;65.30
19050;DHT22;9657;45.940;12.840;2023-05-10T09:56:32;20.80;65.30
19050;DHT22;9657;45.940;12.840;2023-05-10T09:59:05;20.80;65.30
19050;DHT22;9657;45.940;12.840;2023-05-10T10:01:33;20.80;65.30
19050;DHT22;9657;45.940;12.840;2023-05-10T10:04:03;20.80;65.30
19050;DHT22;9657;45.940;12.840;2023-05-10T10:06:35;20.80;65.40
19050;DHT22;9657;45.940;12.840;2023-05-10T10:09:03;20.80;65.40
19050;DHT22;9657;45.940;12.840;2023-05-10T10:11:30;20.80;65.30
19050;DHT22;9657;45.940;12.840;2023-05-10T10:13:58;20.80;65.30
19050;DHT22;9657;45.940;12.840;2023-05-10T10:16:27;20.80;65.40
19050;DHT22;9657;45.940;12.840;2023-05-10T10:18:55;20.80;66.10
19050;DHT22;9657;45.940;12.840;2023-05-10T10:21:23;20.80;65.40
19050;DHT22;9657;45.940;12.840;2023-05-10T10:23:51;20.80;65.30
19050;DHT22;9657;45.940;12.840;2023-05-10T10:26:19;20.80;65.40
19050;DHT22;9657;45.940;12.840;2023-05-10T10:28:56;20.80;65.40
19050;DHT22;9657;45.940;12.840;2023-05-10T10:31:34;20.80;65.40
19050;DHT22;9657;45.940;12.840;2023-05-10T10:34:06;20.80;65.40
19050;DHT22;9657;45.940;12.840;2023-05-10T10:36:39;20.80;65.30
19050;DHT22;9657;45.940;12.840;2023-05-10T10:39:09;20.80;65.40
19050;DHT22;9657;45.940;12.840;2023-05-10T10:41:38;20.80;65.40
19050;DHT22;9657;45.940;12.840;2023-05-10T10:44:35;20.80;65.40
19050;DHT22;9657;45.940;12.840;2023-05-10T10:47:23;20.80;65.40
19050;DHT22;9657;45.940;12.840;2023-05-10T10:50:04;20.80;65.40
19050;DHT22;9657;45.940;12.840;2023-05-10T10:52:32;20.80;65.40
19050;DHT22;9657;45.940;12.840;2023-05-10T10:55:02;20.80;65.40
19050;DHT22;9657;45.940;12.840;2023-05-10T10:57:32;20.80;65.40
19050;DHT22;9657;45.940;12.840;2023-05-10T11:00:22;20.80;65.70
19050;DHT22;9657;45.940;12.840;2023-05-10T11:02:52;20.80;65.40
19050;DHT22;9657;45.940;12.840;2023-05-10T11:05:34;20.80;65.50
19050;DHT22;9657;45.940;12.840;2023-05-10T11:08:08;20.80;65.40
19050;DHT22;9657;45.940;12.840;2023-05-10T11:10:35;20.80;65.40
19050;DHT22;9657;45.940;12.840;2023-05-10T11:13:04;20.80;65.50
19050;DHT22;9657;45.940;12.840;2023-05-10T11:15:33;20.80;65.50
19050;DHT22;9657;45.940;12.840;2023-05-10T11:18:16;20.80;65.40
19050;DHT22;9657;45.940;12.840;2023-05-10T11:20:43;20.80;65.40
19050;DHT22;9657;45.940;12.840;2023-05-10T11:23:13;20.80;66.30
19050;DHT22;9657;45.940;12.840;2023-05-10T11:25:42;20.80;65.50
19050;DHT22;9657;45.940;12.840;2023-05-10T11:28:10;20.80;65.50
19050;DHT22;9657;45.940;12.840;2023-05-10T11:30:38;20.70;65.40
19050;DHT22;9657;45.940;12.840;2023-05-10T11:33:07;20.80;65.50
19050;DHT22;9657;45.940;12.840;2023-05-10T11:35:38;20.80;65.50
19050;DHT22;9657;45.940;12.840;2023-05-10T11:38:06;20.80;65.50
19050;DHT22;9657;45.940;12.840;2023-05-10T11:40:34;20.80;65.50
19050;DHT22;9657;45.940;12.840;2023-05-10T11:43:01;20.80;65.50
19050;DHT22;9657;45.940;12.840;2023-05-10T11:45:28;20.80;65.50
19050;DHT22;9657;45.940;12.840;2023-05-10T11:47:57;20.80;65.50
19050;DHT22;9657;45.940;12.840;2023-05-10T11:50:26;20.70;65.50
19050;DHT22;9657;45.940;12.840;2023-05-10T11:52:53;20.80;65.50
19050;DHT22;9657;45.940;12.840;2023-05-10T11:55:21;20.80;65.50
19050;DHT22;9657;45.940;12.840;2023-05-10T11:57:52;20.80;65.50
19050;DHT22;9657;45.940;12.840;2023-05-10T12:00:19;20.80;65.50
19050;DHT22;9657;45.940;12.840;2023-05-10T12:02:46;20.80;65.50
19050;DHT22;9657;45.940;12.840;2023-05-10T12:05:14;20.80;65.50
19050;DHT22;9657;45.940;12.840;2023-05-10T12:07:42;20.70;65.50
19050;DHT22;9657;45.940;12.840;2023-05-10T12:10:10;20.80;65.50
19050;DHT22;9657;45.940;12.840;2023-05-10T12:12:41;20.70;65.50
19050;DHT22;9657;45.940;12.840;2023-05-10T12:15:12;20.80;65.50
19050;DHT22;9657;45.940;12.840;2023-05-10T12:17:39;20.80;65.50
19050;DHT22;9657;45.940;12.840;2023-05-10T12:20:14;20.70;65.40
19050;DHT22;9657;45.940;12.840;2023-05-10T12:22:44;20.80;65.50
19050;DHT22;9657;45.940;12.840;2023-05-10T12:25:11;20.70;65.40
19050;DHT22;9657;45.940;12.840;2023-05-10T12:27:38;20.80;65.50
19050;DHT22;9657;45.940;12.840;2023-05-10T12:30:06;20.70;65.50
19050;DHT22;9657;45.940;12.840;2023-05-10T12:32:40;20.80;65.50
19050;DHT22;9657;45.940;12.840;2023-05-10T12:35:08;20.70;65.40
19050;DHT22;9657;45.940;12.840;2023-05-10T12:37:35;20.80;65.50
19050;DHT22;9657;45.940;12.840;2023-05-10T12:40:08;20.80;65.50
19050;DHT22;9657;45.940;12.840;2023-05-10T12:42:37;20.70;65.50
19050;DHT22;9657;45.940;12.840;2023-05-10T12:45:05;20.70;65.40
19050;DHT22;9657;45.940;12.840;2023-05-10T12:47:33;20.80;65.50
19050;DHT22;9657;45.940;12.840;2023-05-10T12:50:01;20.70;65.50
19050;DHT22;9657;45.940;12.840;2023-05-10T12:52:28;20.70;65.50
19050;DHT22;9657;45.940;12.840;2023-05-10T12:54:55;20.70;65.50
19050;DHT22;9657;45.940;12.840;2023-05-10T12:57:23;20.80;65.50
19050;DHT22;9657;45.940;12.840;2023-05-10T12:59:51;20.80;65.50
19050;DHT22;9657;45.940;12.840;2023-05-10T13:02:18;20.70;65.50
19050;DHT22;9657;45.940;12.840;2023-05-10T13:04:45;20.70;65.50
19050;DHT22;9657;45.940;12.840;2023-05-10T13:07:15;20.70;65.50
19050;DHT22;9657;45.940;12.840;2023-05-10T13:09:42;20.70;65.50
19050;DHT22;9657;45.940;12.840;2023-05-10T13:12:09;20.70;65.50
19050;DHT22;9657;45.940;12.840;2023-05-10T13:14:37;20.70;65.50
19050;DHT22;9657;45.940;12.840;2023-05-10T13:17:06;20.70;65.50
19050;DHT22;9657;45.940;12.840;2023-05-10T13:19:33;20.70;65.50
19050;DHT22;9657;45.940;12.840;2023-05-10T13:22:00;20.70;65.50
19050;DHT22;9657;45.940;12.840;2023-05-10T13:24:28;20.70;65.50
19050;DHT22;9657;45.940;12.840;2023-05-10T13:26:55;20.70;65.50
19050;DHT22;9657;45.940;12.840;2023-05-10T13:29:22;20.70;65.50
19050;DHT22;9657;45.940;12.840;2023-05-10T13:31:50;20.70;65.50
19050;DHT22;9657;45.940;12.840;2023-05-10T13:34:17;20.70;65.50
19050;DHT22;9657;45.940;12.840;2023-05-10T13:36:46;20.70;65.60
19050;DHT22;9657;45.940;12.840;2023-05-10T13:39:13;20.70;65.50
19050;DHT22;9657;45.940;12.840;2023-05-10T13:41:40;20.70;65.50
19050;DHT22;9657;45.940;12.840;2023-05-10T13:44:07;20.70;65.50
19050;DHT22;9657;45.940;12.840;2023-05-10T13:46:34;20.70;65.50
19050;DHT22;9657;45.940;12.840;2023-05-10T13:49:03;20.70;65.50
19050;DHT22;9657;45.940;12.840;2023-05-10T13:51:30;20.70;65.60
19050;DHT22;9657;45.940;12.840;2023-05-10T13:53:57;20.70;65.60
19050;DHT22;9657;45.940;12.840;2023-05-10T13:56:24;20.70;65.60
19050;DHT22;9657;45.940;12.840;2023-05-10T13:58:51;20.70;65.60
19050;DHT22;9657;45.940;12.840;2023-05-10T14:01:19;20.70;65.60
19050;DHT22;9657;45.940;12.840;2023-05-10T14:03:46;20.70;65.60
19050;DHT22;9657;45.940;12.840;2023-05-10T14:06:15;20.70;65.60
19050;DHT22;9657;45.940;12.840;2023-05-10T14:08:42;20.70;65.60
19050;DHT22;9657;45.940;12.840;2023-05-10T14:11:09;20.70;65.70
19050;DHT22;9657;45.940;12.840;2023-05-10T14:13:36;20.70;65.60
19050;DHT22;9657;45.940;12.840;2023-05-10T14:16:03;20.70;65.70
19050;DHT22;9657;45.940;12.840;2023-05-10T14:18:30;20.70;65.60
19050;DHT22;9657;45.940;12.840;2023-05-10T14:20:57;20.70;65.70
19050;DHT22;9657;45.940;12.840;2023-05-10T14:23:25;20.70;65.80
19050;DHT22;9657;45.940;12.840;2023-05-10T14:25:54;20.70;65.70
19050;DHT22;9657;45.940;12.840;2023-05-10T14:28:21;20.70;65.70
19050;DHT22;9657;45.940;12.840;2023-05-10T14:30:49;20.70;65.70
19050;DHT22;9657;45.940;12.840;2023-05-10T14:33:16;20.70;65.80
19050;DHT22;9657;45.940;12.840;2023-05-10T14:35:44;20.70;65.80
19050;DHT22;9657;45.940;12.840;2023-05-10T14:38:12;20.70;65.70
19050;DHT22;9657;45.940;12.840;2023-05-10T14:40:40;20.70;65.70
19050;DHT22;9657;45.940;12.840;2023-05-10T14:43:08;20.70;65.70
19050;DHT22;9657;45.940;12.840;2023-05-10T14:45:35;20.70;65.80
19050;DHT22;9657;45.940;12.840;2023-05-10T14:48:02;20.70;65.80
19050;DHT22;9657;45.940;12.840;2023-05-10T14:50:30;20.70;65.80
19050;DHT22;9657;45.940;12.840;2023-05-10T14:52:57;20.70;65.70
19050;DHT22;9657;45.940;12.840;2023-05-10T14:55:24;20.70;65.80
19050;DHT22;9657;45.940;12.840;2023-05-10T14:57:53;20.60;65.60
19050;DHT22;9657;45.940;12.840;2023-05-10T15:00:20;20.70;65.80
19050;DHT22;9657;45.940;12.840;2023-05-10T15:02:48;20.70;65.80
19050;DHT22;9657;45.940;12.840;2023-05-10T15:05:15;20.70;65.80
19050;DHT22;9657;45.940;12.840;2023-05-10T15:07:42;20.60;65.60
19050;DHT22;9657;45.940;12.840;2023-05-10T15:10:09;20.60;65.60
19050;DHT22;9657;45.940;12.840;2023-05-10T15:12:37;20.60;65.70
19050;DHT22;9657;45.940;12.840;2023-05-10T15:15:07;20.60;65.60
19050;DHT22;9657;45.940;12.840;2023-05-10T15:17:34;20.60;65.60
19050;DHT22;9657;45.940;12.840;2023-05-10T15:20:01;20.60;65.60
19050;DHT22;9657;45.940;12.840;2023-05-10T15:22:30;20.60;65.60
19050;DHT22;9657;45.940;12.840;2023-05-10T15:24:57;20.60;65.70
19050;DHT22;9657;45.940;12.840;2023-05-10T15:27:24;20.60;65.70
19050;DHT22;9657;45.940;12.840;2023-05-10T15:29:52;20.60;65.60
19050;DHT22;9657;45.940;12.840;2023-05-10T15:32:20;20.60;65.70
19050;DHT22;9657;45.940;12.840;2023-05-10T15:34:47;20.60;65.80
19050;DHT22;9657;45.940;12.840;2023-05-10T15:37:14;20.60;65.80
19050;DHT22;9657;45.940;12.840;2023-05-10T15:39:41;20.60;65.80
19050;DHT22;9657;45.940;12.840;2023-05-10T15:42:08;20.60;65.80
19050;DHT22;9657;45.940;12.840;2023-05-10T15:44:35;20.60;65.80
19050;DHT22;9657;45.940;12.840;2023-05-10T15:47:04;20.60;65.80